Fort Worth Meacham International Airport
KFTW : now visible

Airfield :











YOU CAN JOIN US ON...

 
LOGIN :

Register | Disclaimer

   EN    FR    IT 

 









Legend :    VFR   Marginal VFR   IFR   Intensive IFR   Very Intensive IFR
Visi :
Ceiling :
>= 8 km
>= 3000ft
5 to 8 km
1000 to 3000 ft
1500m to 5 km
500 to 1000 ft
800 to 1500m
200 to 500 ft
< 800m
< 200 ft
Symbols :   Thunderstorms  Fog  Heavy snow  Heavy precipitations  Wind > 20 kt






- Airport Elevation : 710 ft
- IATA code : FTW


KFTW - Fort Worth Meacham International

CURRENT METAR :
  • 230353Z 15007KT 10SM BKN046 BKN055 25/19 A2989 RMK AO2 SLP114 T02500189

EXPIRED METARs :
  • 230253Z 14010KT 10SM CLR 24/19 A2987 RMK AO2 SLP106 T02440189 51008
  • 230153Z 14012KT 10SM CLR 25/19 A2987 RMK AO2 SLP107 T02500189

TAF KFTW
Valid from the 23 at 03:00 until the 24 at 00:00 UTC


230250Z 2303/2324 16014KT P6SM FEW060
FM230600 18011KT P6SM VCSH BKN080
FM231000 20006KT P6SM VCTS SCT015 BKN022CB
FM231200 31008KT P6SM VCTS BKN018CB
TEMPO 2312/2314 4SM -TSRA BR BKN012CB
FM231400 35018G28KT P6SM VCTS BKN015CB
FM231800 35017KT P6SM VCSH OVC021
KZFW FIR / North America



MET'MAP, your aeronautical weather chart ! - Copyright ORBIFLY December 2007 - Disclaimer

ORBIFLY MET'MAP TEAM :

Programming & Development : Alexandra Zaïnal
Concept & original design : Baudouin d'Aumeries
Assistance for programming : Marc-Olivier Méhu
Technical & hardware support : Manuel Goepfert

Contact : metmap@orbifly.com




SOURCES & CREDITS :

   NOAA       Earth
Advisory